Time;durP1;ratioP1;P1;durP2;ratioP2;P2;SDS_P1;SDS_P2;PMS_P1;PMS_P2;Temp;Humidity;BMP_temperature;BMP_pressure;BME280_temperature;BME280_humidity;BME280_pressure;Samples;Min_cycle;Max_cycle;Signal;HPM_P1;HPM_P2
2022/11/18 00:01:07;;;;;;;17.32;12.47;;;;;;;-0.45;93.73;96798.16;1795881;78;21107;-63
2022/11/18 00:03:34;;;;;;;16.80;12.23;;;;;;;-0.44;93.85;96799.73;1802456;78;21057;-63
2022/11/18 00:06:01;;;;;;;16.17;12.00;;;;;;;-0.43;93.81;96798.70;1801973;78;20919;-62
2022/11/18 00:08:28;;;;;;;15.18;10.80;;;;;;;-0.41;93.82;96799.25;1796364;79;21437;-62
2022/11/18 00:10:55;;;;;;;16.02;11.08;;;;;;;-0.40;93.69;96802.13;1791832;78;20965;-63
2022/11/18 00:16:10;;;;;;;14.75;10.70;;;;;;;-0.41;93.64;96803.19;1802354;79;21382;-63
2022/11/18 00:18:37;;;;;;;16.23;11.63;;;;;;;-0.40;93.63;96798.19;1784385;78;20906;-63
2022/11/18 00:21:07;;;;;;;21.25;12.45;;;;;;;-0.40;93.63;96803.99;1791387;78;20887;-63
2022/11/18 00:23:34;;;;;;;21.93;13.70;;;;;;;-0.39;93.81;96795.84;1808012;79;21045;-63
2022/11/18 00:26:04;;;;;;;18.05;12.60;;;;;;;-0.35;93.90;96795.61;1780650;78;21521;-63
2022/11/18 00:28:31;;;;;;;19.40;12.95;;;;;;;-0.33;93.64;96799.32;1807979;78;21136;-64
2022/11/18 00:31:10;;;;;;;16.65;12.80;;;;;;;-0.36;93.48;96792.72;1788167;79;20946;-64
2022/11/18 00:33:37;;;;;;;17.05;13.10;;;;;;;-0.36;93.48;96795.34;1791029;78;20975;-64
2022/11/18 00:36:06;;;;;;;16.40;12.43;;;;;;;-0.37;93.55;96799.02;1793834;78;20959;-64
2022/11/18 00:38:32;;;;;;;17.23;12.68;;;;;;;-0.35;93.65;96794.29;1784768;79;21041;-63
2022/11/18 00:41:07;;;;;;;17.67;12.95;;;;;;;-0.36;93.54;96783.51;1784369;78;21048;-63
2022/11/18 00:43:34;;;;;;;17.82;12.55;;;;;;;-0.37;93.64;96775.33;1784841;78;20892;-64
2022/11/18 00:46:02;;;;;;;18.15;12.63;;;;;;;-0.35;93.57;96775.88;1792571;79;20891;-64
2022/11/18 00:48:29;;;;;;;17.27;12.75;;;;;;;-0.39;93.50;96772.16;1777185;79;21101;-64
2022/11/18 00:50:57;;;;;;;15.32;11.57;;;;;;;-0.41;93.54;96779.52;1784593;78;21493;-64
2022/11/18 00:53:25;;;;;;;16.40;11.22;;;;;;;-0.43;93.54;96778.17;1784181;78;21501;-63
2022/11/18 00:55:52;;;;;;;15.63;11.45;;;;;;;-0.47;93.44;96775.23;1781731;78;21493;-63
2022/11/18 00:58:19;;;;;;;13.80;10.60;;;;;;;-0.48;93.51;96778.92;1781046;78;21104;-63
2022/11/18 01:00:49;;;;;;;12.47;9.95;;;;;;;-0.44;93.57;96780.00;1794330;79;21042;-63
2022/11/18 01:03:16;;;;;;;13.15;9.28;;;;;;;-0.50;93.19;96783.64;1804038;78;21241;-63
2022/11/18 01:05:43;;;;;;;12.25;9.78;;;;;;;-0.58;93.18;96788.54;1783870;78;20907;-63
2022/11/18 01:08:11;;;;;;;12.15;9.33;;;;;;;-0.60;93.41;96782.73;1803818;78;21465;-63
2022/11/18 01:10:38;;;;;;;13.08;10.10;;;;;;;-0.61;93.40;96785.88;1804098;79;21169;-63
2022/11/18 01:13:18;;;;;;;12.18;9.18;;;;;;;-0.61;93.42;96784.57;1786766;78;20942;-63
2022/11/18 01:15:56;;;;;;;13.55;9.70;;;;;;;-0.62;93.54;96779.56;1781696;78;21035;-65
2022/11/18 01:18:29;;;;;;;12.28;9.38;;;;;;;-0.65;93.30;96780.05;1775619;79;21414;-64
2022/11/18 01:21:01;;;;;;;13.20;9.90;;;;;;;-0.73;93.34;96778.69;1772129;79;20990;-64
2022/11/18 01:23:27;;;;;;;13.10;10.30;;;;;;;-0.74;93.56;96770.52;1796883;78;20867;-64
2022/11/18 01:25:54;;;;;;;15.70;10.85;;;;;;;-0.72;93.72;96777.63;1799342;78;20887;-64
2022/11/18 01:28:21;;;;;;;13.80;10.60;;;;;;;-0.68;93.76;96780.58;1799948;79;21706;-63
2022/11/18 01:30:47;;;;;;;14.80;11.30;;;;;;;-0.65;93.80;96771.66;1781624;78;20954;-63
2022/11/18 01:33:14;;;;;;;15.40;10.75;;;;;;;-0.62;93.69;96776.42;1791542;78;20922;-64
2022/11/18 01:35:42;;;;;;;18.42;11.48;;;;;;;-0.64;93.61;96770.63;1781565;78;21014;-64
2022/11/18 01:38:13;;;;;;;16.27;11.83;;;;;;;-0.61;93.76;96775.91;1789948;78;22733;-64
2022/11/18 01:40:39;;;;;;;15.85;11.68;;;;;;;-0.58;93.76;96770.13;1784008;78;21110;-65
2022/11/18 01:43:16;;;;;;;12.50;10.55;;;;;;;-0.57;93.60;96767.27;1794934;78;20982;-65
2022/11/18 01:45:44;;;;;;;15.50;11.70;;;;;;;-0.58;93.54;96770.13;1777680;78;20986;-65
2022/11/18 01:48:25;;;;;;;14.63;11.18;;;;;;;-0.59;93.52;96765.41;1802560;79;20880;-65
2022/11/18 01:50:57;;;;;;;15.83;11.78;;;;;;;-0.59;93.51;96758.84;1792577;79;21145;-63
2022/11/18 01:53:30;;;;;;;19.30;11.70;;;;;;;-0.62;93.63;96754.58;1798433;78;21225;-64
2022/11/18 01:56:00;;;;;;;15.40;11.35;;;;;;;-0.62;93.69;96759.33;1782851;79;20995;-64
2022/11/18 01:58:31;;;;;;;15.63;11.80;;;;;;;-0.61;93.76;96756.95;1784625;79;20847;-64
2022/11/18 02:00:58;;;;;;;16.20;11.57;;;;;;;-0.58;93.91;96755.15;1783943;78;20987;-64
2022/11/18 02:03:26;;;;;;;13.28;11.10;;;;;;;-0.52;93.88;96754.17;1786018;78;21128;-64
2022/11/18 02:05:54;;;;;;;14.75;11.35;;;;;;;-0.51;93.60;96752.31;1774799;78;21106;-64
2022/11/18 02:08:21;;;;;;;15.45;10.90;;;;;;;-0.53;93.54;96753.09;1786316;79;21049;-65
2022/11/18 02:10:48;;;;;;;15.53;11.60;;;;;;;-0.54;93.59;96748.34;1784922;78;20906;-64
2022/11/18 02:13:16;;;;;;;14.63;11.38;;;;;;;-0.56;93.51;96747.80;1794698;78;20939;-64
2022/11/18 02:16:16;;;;;;;17.75;12.33;;;;;;;-0.58;93.51;96747.27;1812506;78;20888;-64
2022/11/18 02:18:57;;;;;;;16.20;11.30;;;;;;;-0.60;93.58;96741.97;1804665;79;21065;-64
2022/11/18 03:45:52;;;;;;;17.20;12.10;;;;;;;-0.70;93.88;96731.64;1786936;78;21026;-63
2022/11/18 03:48:24;;;;;;;16.25;11.15;;;;;;;-0.71;94.13;96733.98;1781357;78;20907;-63
2022/11/18 03:50:58;;;;;;;13.85;11.05;;;;;;;-0.70;94.25;96734.27;1789147;79;21512;-63
2022/11/18 03:53:29;;;;;;;18.90;10.90;;;;;;;-0.66;94.29;96731.95;1784096;79;20939;-63
2022/11/18 03:56:02;;;;;;;16.05;11.78;;;;;;;-0.59;94.17;96737.00;1787936;79;20906;-63
2022/11/18 03:58:43;;;;;;;15.83;11.33;;;;;;;-0.61;93.88;96726.70;1785032;78;21128;-63
2022/11/18 04:01:17;;;;;;;16.12;11.75;;;;;;;-0.62;93.89;96726.97;1782418;78;21511;-63
2022/11/18 04:03:43;;;;;;;14.93;11.53;;;;;;;-0.65;93.90;96732.20;1779949;79;20926;-63
2022/11/18 04:06:24;;;;;;;16.93;12.20;;;;;;;-0.64;93.97;96732.48;1797444;79;21760;-63
2022/11/18 04:08:56;;;;;;;16.05;11.73;;;;;;;-0.63;93.94;96731.42;1788332;78;20943;-63
2022/11/18 04:14:12;;;;;;;16.35;12.20;;;;;;;-0.60;93.90;96735.40;1792754;78;21090;-63
2022/11/18 04:16:41;;;;;;;20.00;14.28;;;;;;;-0.59;93.99;96733.86;1797995;78;20955;-64
2022/11/18 04:19:07;;;;;;;15.58;11.85;;;;;;;-0.59;93.93;96739.11;1762711;80;21126;-63
2022/11/18 04:21:36;;;;;;;22.65;17.40;;;;;;;-0.58;94.02;96742.00;1785572;78;21018;-64
2022/11/18 04:24:04;;;;;;;15.50;11.68;;;;;;;-0.54;94.07;96736.50;1795403;78;20936;-64
2022/11/18 04:26:30;;;;;;;16.40;11.05;;;;;;;-0.50;94.08;96741.56;1801484;79;21421;-63
2022/11/18 04:28:57;;;;;;;16.10;12.33;;;;;;;-0.51;93.89;96731.27;1792630;79;21366;-64
2022/11/18 04:31:24;;;;;;;16.35;11.45;;;;;;;-0.52;93.80;96736.27;1790593;79;21253;-64
2022/11/18 04:33:50;;;;;;;17.00;12.05;;;;;;;-0.52;93.84;96742.84;1780015;79;20867;-64
2022/11/18 04:36:18;;;;;;;16.42;11.93;;;;;;;-0.52;93.74;96734.95;1802303;78;20970;-64
2022/11/18 04:38:45;;;;;;;17.75;12.50;;;;;;;-0.54;93.66;96729.16;1781844;78;20962;-64
2022/11/18 04:41:12;;;;;;;14.98;11.88;;;;;;;-0.59;93.70;96727.28;1792097;78;20990;-64
2022/11/18 04:43:40;;;;;;;15.68;11.78;;;;;;;-0.63;93.76;96728.80;1801493;78;21177;-64
2022/11/18 04:46:07;;;;;;;16.35;12.35;;;;;;;-0.64;93.80;96732.48;1780947;78;20922;-63
2022/11/18 04:48:34;;;;;;;19.67;11.70;;;;;;;-0.64;94.04;96723.80;1790263;78;21481;-64
2022/11/18 04:51:04;;;;;;;18.17;12.82;;;;;;;-0.61;94.04;96726.70;1786210;79;21088;-64
2022/11/18 04:53:31;;;;;;;15.38;11.63;;;;;;;-0.59;94.09;96719.91;1785033;78;20955;-63
2022/11/18 04:56:06;;;;;;;17.67;12.98;;;;;;;-0.55;94.18;96727.56;1793039;78;21104;-64
2022/11/18 04:58:33;;;;;;;21.48;14.00;;;;;;;-0.50;94.25;96725.77;1795346;79;21001;-64
2022/11/18 05:00:59;;;;;;;23.83;13.85;;;;;;;-0.45;94.12;96719.24;1786131;78;20923;-64
2022/11/18 05:03:26;;;;;;;21.10;14.40;;;;;;;-0.44;94.06;96727.39;1780950;78;21002;-63
2022/11/18 05:05:53;;;;;;;20.65;14.63;;;;;;;-0.44;93.99;96727.91;1793739;78;21109;-64
2022/11/18 05:08:19;;;;;;;18.75;12.78;;;;;;;-0.47;93.93;96727.88;1791456;78;21228;-64
2022/11/18 05:10:46;;;;;;;20.72;14.75;;;;;;;-0.51;94.03;96724.17;1783628;78;21002;-64
2022/11/18 05:13:13;;;;;;;16.35;12.90;;;;;;;-0.55;94.02;96732.30;1785651;78;20922;-64
2022/11/18 05:15:40;;;;;;;18.57;12.55;;;;;;;-0.57;94.11;96734.39;1785201;79;21022;-65
2022/11/18 05:18:10;;;;;;;15.72;11.80;;;;;;;-0.59;94.13;96739.11;1799106;78;20871;-64
2022/11/18 05:20:37;;;;;;;17.57;12.35;;;;;;;-0.60;94.16;96734.88;1802653;78;21964;-64
2022/11/18 05:23:03;;;;;;;14.73;11.50;;;;;;;-0.61;94.20;96735.14;1805599;78;20967;-64
2022/11/18 05:25:32;;;;;;;19.85;13.20;;;;;;;-0.60;94.26;96737.52;1796303;78;20998;-64
2022/11/18 05:27:58;;;;;;;21.27;12.73;;;;;;;-0.62;94.25;96739.61;1788964;78;20939;-64
2022/11/18 05:30:25;;;;;;;18.55;13.60;;;;;;;-0.65;94.38;96742.72;1799292;78;21486;-64
2022/11/18 05:32:51;;;;;;;17.52;12.47;;;;;;;-0.65;94.56;96740.09;1777733;78;21240;-64
2022/11/18 05:35:18;;;;;;;18.65;13.45;;;;;;;-0.63;94.56;96741.15;1794126;78;20958;-64
2022/11/18 05:37:45;;;;;;;22.17;14.65;;;;;;;-0.65;94.54;96738.78;1807848;78;21074;-64
2022/11/18 05:40:12;;;;;;;18.75;15.00;;;;;;;-0.72;94.64;96734.24;1812712;78;21395;-65
2022/11/18 05:45:25;;;;;;;23.52;15.88;;;;;;;-0.69;94.88;96733.75;1798276;79;21561;-64
2022/11/18 05:48:01;;;;;;;22.75;15.75;;;;;;;-0.65;94.85;96738.78;1785109;79;20840;-64
2022/11/18 05:50:30;;;;;;;21.27;15.70;;;;;;;-0.63;94.82;96736.69;1801471;79;21014;-65
2022/11/18 05:52:57;;;;;;;20.48;14.70;;;;;;;-0.62;94.84;96730.40;1808019;78;20892;-64
2022/11/18 05:55:31;;;;;;;17.25;14.30;;;;;;;-0.67;94.66;96732.98;1800204;78;20895;-64
2022/11/18 05:57:57;;;;;;;20.10;14.38;;;;;;;-0.76;94.59;96731.33;1775159;79;21385;-64
2022/11/18 06:00:24;;;;;;;22.77;15.10;;;;;;;-0.82;94.79;96722.30;1803011;78;20914;-63
2022/11/18 06:02:50;;;;;;;19.57;14.38;;;;;;;-0.87;94.85;96723.05;1810765;79;20844;-63
2022/11/18 06:05:19;;;;;;;19.52;14.55;;;;;;;-0.89;94.99;96721.71;1794233;78;21084;-64
2022/11/18 06:07:46;;;;;;;18.77;13.40;;;;;;;-0.92;95.10;96722.23;1789611;78;20967;-65
2022/11/18 06:10:21;;;;;;;18.30;13.53;;;;;;;-0.94;95.05;96717.71;1796773;78;21040;-64
2022/11/18 06:12:50;;;;;;;18.10;14.10;;;;;;;-0.93;95.05;96723.25;1785732;78;20903;-64
2022/11/18 06:15:21;;;;;;;19.98;14.45;;;;;;;-0.88;95.28;96727.25;1781574;78;20902;-64
2022/11/18 06:18:02;;;;;;;20.20;14.75;;;;;;;-0.84;95.05;96723.08;1778168;78;21615;-64
2022/11/18 06:20:31;;;;;;;19.42;14.38;;;;;;;-0.84;95.14;96720.45;1796505;78;20868;-65
2022/11/18 06:23:00;;;;;;;16.62;12.90;;;;;;;-0.83;95.00;96719.42;1739248;80;21493;-64
2022/11/18 06:25:27;;;;;;;19.10;14.40;;;;;;;-0.82;95.09;96724.94;1789555;78;21648;-65
2022/11/18 06:27:56;;;;;;;18.77;13.88;;;;;;;-0.78;95.21;96726.05;1790896;78;21079;-65
2022/11/18 06:30:22;;;;;;;17.95;13.68;;;;;;;-0.74;94.97;96731.08;1801599;78;21513;-64
2022/11/18 06:32:49;;;;;;;17.95;13.40;;;;;;;-0.73;94.88;96735.30;1791055;78;21069;-64
2022/11/18 06:35:16;;;;;;;18.15;13.22;;;;;;;-0.72;94.79;96734.24;1797438;78;21146;-64
2022/11/18 06:37:42;;;;;;;18.80;14.68;;;;;;;-0.71;94.63;96736.61;1796244;79;20959;-64
2022/11/18 06:40:11;;;;;;;26.97;18.90;;;;;;;-0.72;94.58;96736.36;1795368;78;21037;-65
2022/11/18 06:45:22;;;;;;;24.10;18.85;;;;;;;-0.71;94.51;96739.78;1799139;78;21027;-64
2022/11/18 06:47:49;;;;;;;19.32;13.68;;;;;;;-0.70;94.51;96747.93;1769701;78;21728;-61
2022/11/18 06:50:16;;;;;;;18.90;13.10;;;;;;;-0.67;94.43;96750.07;1765235;78;20874;-63
2022/11/18 06:52:43;;;;;;;18.23;14.33;;;;;;;-0.68;93.93;96751.10;1745748;81;21429;-65
2022/11/18 06:55:10;;;;;;;21.55;17.23;;;;;;;-0.77;94.05;96754.71;1743432;81;20984;-65
2022/11/18 06:57:40;;;;;;;32.78;23.62;;;;;;;-0.76;94.16;96763.40;1767472;78;21005;-62
2022/11/18 07:00:09;;;;;;;21.05;16.23;;;;;;;-0.74;94.24;96757.37;1770644;78;21219;-62
2022/11/18 07:02:37;;;;;;;62.67;44.45;;;;;;;-0.73;94.06;96755.02;1798157;78;21487;-63
2022/11/18 07:05:05;;;;;;;25.27;18.67;;;;;;;-0.76;93.91;96744.99;1803667;78;21508;-66
2022/11/18 07:07:34;;;;;;;14.70;11.55;;;;;;;-0.77;93.93;96753.91;1776042;78;20963;-65
2022/11/18 07:10:01;;;;;;;12.65;11.22;;;;;;;-0.77;93.78;96744.19;1773680;78;21040;-61
2022/11/18 07:12:29;;;;;;;13.98;10.40;;;;;;;-0.79;93.47;96748.11;1786951;78;20962;-63
2022/11/18 07:14:56;;;;;;;12.07;10.18;;;;;;;-0.82;93.41;96744.14;1770100;79;20951;-65
2022/11/18 07:17:23;;;;;;;11.73;9.85;;;;;;;-0.86;93.28;96745.69;1776661;79;21062;-66
2022/11/18 07:19:50;;;;;;;14.65;10.93;;;;;;;-0.86;93.10;96752.77;1766499;79;20964;-70
2022/11/18 07:22:16;;;;;;;15.78;12.13;;;;;;;-0.88;93.08;96752.23;1797656;78;21137;-67
2022/11/18 07:24:43;;;;;;;13.58;11.75;;;;;;;-0.91;93.09;96755.34;1802226;78;21224;-67
2022/11/18 07:27:11;;;;;;;13.50;11.35;;;;;;;-0.96;93.08;96755.28;1778600;77;21066;-65
2022/11/18 07:29:38;;;;;;;13.60;10.53;;;;;;;-1.00;93.15;96762.88;1775127;78;21157;-68
2022/11/18 07:32:05;;;;;;;12.58;10.65;;;;;;;-1.03;93.21;96762.56;1764552;78;21300;-67
2022/11/18 07:34:32;;;;;;;13.10;11.18;;;;;;;-1.07;93.13;96760.16;1777241;79;20970;-63
2022/11/18 07:36:59;;;;;;;15.85;12.18;;;;;;;-1.12;93.31;96768.79;1762907;78;21059;-64
2022/11/18 07:39:30;;;;;;;15.88;11.43;;;;;;;-1.15;93.34;96764.53;1781231;79;20939;-68
2022/11/18 07:41:57;;;;;;;14.90;12.35;;;;;;;-1.17;93.55;96769.23;1776511;79;20954;-60
2022/11/18 07:44:25;;;;;;;12.73;10.18;;;;;;;-1.24;93.61;96781.77;1790087;79;20879;-65
2022/11/18 07:46:52;;;;;;;14.47;11.48;;;;;;;-1.26;93.41;96781.22;1795058;77;21643;-62
2022/11/18 07:49:18;;;;;;;14.98;11.05;;;;;;;-1.33;93.55;96783.23;1779690;78;21098;-60
2022/11/18 07:51:45;;;;;;;13.80;11.03;;;;;;;-1.34;93.83;96775.86;1751632;80;21016;-59
2022/11/18 07:54:15;;;;;;;29.18;20.97;;;;;;;-1.34;93.87;96771.16;1774289;78;21749;-66
2022/11/18 07:56:53;;;;;;;17.85;13.03;;;;;;;-1.32;94.02;96784.84;1785632;78;20983;-65
2022/11/18 07:59:21;;;;;;;16.42;12.58;;;;;;;-1.32;93.93;96774.33;1701220;82;21098;-64
2022/11/18 08:01:49;;;;;;;20.60;14.15;;;;;;;-1.32;94.19;96762.51;1720874;81;21150;-68
2022/11/18 08:04:18;;;;;;;13.83;11.45;;;;;;;-1.30;94.32;96763.05;1738908;80;21079;-63
2022/11/18 08:06:48;;;;;;;18.40;13.10;;;;;;;-1.22;94.58;96758.66;1711726;80;21487;-64
2022/11/18 08:09:16;;;;;;;16.17;12.43;;;;;;;-1.19;94.41;96754.24;1728569;80;21037;-64
2022/11/18 08:11:48;;;;;;;15.15;11.88;;;;;;;-1.13;94.42;96749.34;1732162;80;21554;-66
2022/11/18 08:14:18;;;;;;;12.82;10.93;;;;;;;-1.10;94.36;96761.45;1710697;80;20967;-67
2022/11/18 08:16:46;;;;;;;15.40;12.13;;;;;;;-1.07;94.08;96761.48;1706306;81;21140;-66
2022/11/18 08:19:14;;;;;;;15.53;12.68;;;;;;;-1.08;93.93;96745.42;1711990;82;21128;-62
2022/11/18 08:21:43;;;;;;;15.13;11.83;;;;;;;-1.08;93.96;96746.22;1702996;82;21019;-62
2022/11/18 08:24:12;;;;;;;13.53;11.05;;;;;;;-1.04;94.14;96743.40;1715635;82;21029;-64
2022/11/18 08:26:39;;;;;;;14.25;11.85;;;;;;;-1.04;93.72;96753.11;1733015;80;21094;-64
2022/11/18 08:29:06;;;;;;;27.87;20.95;;;;;;;-1.03;93.78;96761.25;1737875;80;21529;-64
2022/11/18 08:31:33;;;;;;;15.38;12.53;;;;;;;-1.01;93.87;96753.91;1683849;82;21086;-63
2022/11/18 08:34:04;;;;;;;14.43;11.53;;;;;;;-0.96;93.98;96751.34;1763239;78;21097;-67
2022/11/18 08:36:34;;;;;;;17.50;12.90;;;;;;;-0.89;93.82;96748.80;1767504;78;21214;-62
2022/11/18 08:39:04;;;;;;;19.73;13.28;;;;;;;-0.86;93.57;96747.52;1746040;79;21169;-64
2022/11/18 08:41:34;;;;;;;19.48;14.95;;;;;;;-0.83;93.60;96748.34;1753531;79;20946;-62
2022/11/18 08:44:01;;;;;;;20.60;15.85;;;;;;;-0.81;93.46;96748.88;1755629;80;21019;-64
2022/11/18 08:46:29;;;;;;;14.83;12.05;;;;;;;-0.82;93.41;96754.66;1751047;80;21189;-65
2022/11/18 08:48:58;;;;;;;14.53;11.50;;;;;;;-0.82;93.48;96752.02;1777449;79;20995;-66
2022/11/18 08:51:24;;;;;;;15.68;13.15;;;;;;;-0.81;93.12;96741.00;1762813;78;21190;-64
2022/11/18 08:53:51;;;;;;;13.53;11.97;;;;;;;-0.82;93.27;96741.51;1748688;78;21104;-65
2022/11/18 08:56:20;;;;;;;16.77;12.07;;;;;;;-0.83;93.02;96737.83;1757667;79;21055;-64
2022/11/18 08:58:47;;;;;;;20.75;16.35;;;;;;;-0.88;93.08;96734.62;1758948;78;21279;-66
2022/11/18 09:01:13;;;;;;;12.43;10.85;;;;;;;-0.86;93.03;96730.42;1741959;80;21593;-64
2022/11/18 09:03:40;;;;;;;12.90;10.80;;;;;;;-0.82;92.86;96730.99;1745589;81;21309;-64
2022/11/18 09:06:13;;;;;;;14.10;11.08;;;;;;;-0.81;92.51;96727.84;1770609;79;20950;-60
2022/11/18 09:08:40;;;;;;;13.13;11.15;;;;;;;-0.86;92.66;96719.39;1774456;78;21044;-62
2022/11/18 09:11:20;;;;;;;15.53;12.28;;;;;;;-0.86;92.51;96722.54;1767469;79;21120;-65
2022/11/18 09:13:54;;;;;;;14.58;11.08;;;;;;;-0.89;92.68;96726.45;1790926;78;21100;-65
2022/11/18 09:16:23;;;;;;;17.45;11.75;;;;;;;-0.84;92.80;96729.65;1803509;78;21155;-65
2022/11/18 09:18:50;;;;;;;23.25;17.32;;;;;;;-0.80;92.60;96716.30;1793887;78;20966;-66
2022/11/18 09:21:17;;;;;;;17.48;14.50;;;;;;;-0.82;92.31;96720.98;1792996;78;21119;-64
2022/11/18 09:23:45;;;;;;;29.50;20.17;;;;;;;-0.86;92.54;96719.91;1780121;78;21109;-64
2022/11/18 09:26:15;;;;;;;24.27;17.02;;;;;;;-0.87;92.65;96720.94;1806375;78;21469;-64
2022/11/18 09:28:43;;;;;;;16.97;13.20;;;;;;;-0.86;92.70;96719.91;1799269;78;21095;-66
2022/11/18 09:31:15;;;;;;;15.32;11.83;;;;;;;-0.87;92.79;96715.68;1771906;78;20954;-62
2022/11/18 09:33:43;;;;;;;15.23;12.53;;;;;;;-0.86;93.02;96712.82;1765480;79;21113;-65
2022/11/18 09:36:16;;;;;;;22.00;16.10;;;;;;;-0.80;92.96;96709.73;1762742;79;21560;-64
2022/11/18 09:38:43;;;;;;;30.02;18.62;;;;;;;-0.74;92.85;96703.47;1755191;79;21113;-67
2022/11/18 09:41:36;;;;;;;16.00;11.50;;;;;;;-0.71;92.26;96697.72;1775487;78;21077;-63
2022/11/18 09:44:31;;;;;;;13.40;10.72;;;;;;;-0.70;92.14;96703.23;1750881;80;21068;-64
2022/11/18 09:47:31;;;;;;;14.55;11.60;;;;;;;-0.71;92.10;96692.45;1748506;79;21142;-63
2022/11/18 09:50:04;;;;;;;14.15;11.85;;;;;;;-0.77;91.99;96694.23;1802357;78;21483;-66
2022/11/18 09:52:51;;;;;;;14.87;10.35;;;;;;;-0.80;91.95;96713.67;1795954;78;21074;-62
2022/11/18 09:55:18;;;;;;;14.25;11.35;;;;;;;-0.80;92.09;96715.76;1784842;78;21157;-67
2022/11/18 09:57:50;;;;;;;11.75;9.05;;;;;;;-0.77;91.88;96713.16;1797858;78;21548;-65
2022/11/18 10:00:26;;;;;;;13.03;9.93;;;;;;;-0.80;91.73;96716.30;1793477;78;21524;-64
2022/11/18 10:03:10;;;;;;;14.80;11.78;;;;;;;-0.83;91.75;96714.96;1796204;78;21524;-63
2022/11/18 10:06:17;;;;;;;12.82;10.03;;;;;;;-0.88;91.90;96718.05;1763331;78;21038;-62
2022/11/18 10:09:31;;;;;;;10.10;8.33;;;;;;;-0.87;92.13;96708.59;1760755;79;21057;-63
2022/11/18 10:12:16;;;;;;;16.40;13.80;;;;;;;-0.86;91.87;96706.25;1791046;77;21089;-63
2022/11/18 10:15:28;;;;;;;9.00;7.78;;;;;;;-0.86;91.89;96726.48;1784201;78;21075;-67
